sensor_id;sensor_type;location;lat;lon;timestamp;P1;durP1;ratioP1;P2;durP2;ratioP2
21416;SDS011;10869;52.238;10.716;2023-05-07T03:04:16;26.43;;;16.93;;
21416;SDS011;10869;52.238;10.716;2023-05-07T03:06:42;24.33;;;17.07;;
21416;SDS011;10869;52.238;10.716;2023-05-07T03:09:08;23.97;;;17.47;;
21416;SDS011;10869;52.238;10.716;2023-05-07T03:11:33;25.63;;;19.13;;
21416;SDS011;10869;52.238;10.716;2023-05-07T03:14:00;27.97;;;19.83;;
21416;SDS011;10869;52.238;10.716;2023-05-07T03:16:26;25.33;;;18.43;;
21416;SDS011;10869;52.238;10.716;2023-05-07T03:18:52;28.97;;;19.37;;
21416;SDS011;10869;52.238;10.716;2023-05-07T03:21:18;22.47;;;17.30;;
21416;SDS011;10869;52.238;10.716;2023-05-07T03:23:44;21.77;;;16.03;;
21416;SDS011;10869;52.238;10.716;2023-05-07T03:26:10;22.67;;;16.37;;
21416;SDS011;10869;52.238;10.716;2023-05-07T03:28:36;22.97;;;16.60;;
21416;SDS011;10869;52.238;10.716;2023-05-07T03:31:02;20.33;;;15.30;;
21416;SDS011;10869;52.238;10.716;2023-05-07T03:33:28;19.67;;;15.43;;
21416;SDS011;10869;52.238;10.716;2023-05-07T03:35:53;17.37;;;14.20;;
21416;SDS011;10869;52.238;10.716;2023-05-07T03:38:19;17.63;;;13.80;;
21416;SDS011;10869;52.238;10.716;2023-05-07T03:40:45;18.50;;;13.97;;
21416;SDS011;10869;52.238;10.716;2023-05-07T03:43:10;17.07;;;13.67;;
21416;SDS011;10869;52.238;10.716;2023-05-07T03:45:36;19.43;;;14.63;;
21416;SDS011;10869;52.238;10.716;2023-05-07T03:48:02;19.53;;;13.83;;
21416;SDS011;10869;52.238;10.716;2023-05-07T03:50:28;19.63;;;14.87;;
21416;SDS011;10869;52.238;10.716;2023-05-07T03:52:54;18.57;;;14.67;;
21416;SDS011;10869;52.238;10.716;2023-05-07T03:55:19;17.03;;;13.50;;
21416;SDS011;10869;52.238;10.716;2023-05-07T03:57:45;16.67;;;13.23;;
21416;SDS011;10869;52.238;10.716;2023-05-07T04:00:11;15.87;;;13.47;;
21416;SDS011;10869;52.238;10.716;2023-05-07T04:02:38;17.47;;;13.63;;
21416;SDS011;10869;52.238;10.716;2023-05-07T04:05:03;20.27;;;13.87;;
21416;SDS011;10869;52.238;10.716;2023-05-07T04:07:30;16.37;;;13.40;;
21416;SDS011;10869;52.238;10.716;2023-05-07T04:13:17;17.97;;;13.97;;
21416;SDS011;10869;52.238;10.716;2023-05-07T04:15:43;23.23;;;13.97;;
21416;SDS011;10869;52.238;10.716;2023-05-07T04:18:08;17.17;;;13.57;;
21416;SDS011;10869;52.238;10.716;2023-05-07T04:20:34;19.50;;;14.47;;
21416;SDS011;10869;52.238;10.716;2023-05-07T04:23:03;18.43;;;14.17;;
21416;SDS011;10869;52.238;10.716;2023-05-07T04:25:28;18.53;;;14.07;;
21416;SDS011;10869;52.238;10.716;2023-05-07T04:27:54;19.90;;;13.83;;
21416;SDS011;10869;52.238;10.716;2023-05-07T04:30:20;16.93;;;12.87;;
21416;SDS011;10869;52.238;10.716;2023-05-07T04:32:46;15.60;;;12.57;;
21416;SDS011;10869;52.238;10.716;2023-05-07T04:35:13;15.93;;;12.07;;
21416;SDS011;10869;52.238;10.716;2023-05-07T04:37:39;15.60;;;12.83;;
21416;SDS011;10869;52.238;10.716;2023-05-07T04:40:05;16.63;;;12.10;;
21416;SDS011;10869;52.238;10.716;2023-05-07T04:42:31;17.07;;;13.57;;
21416;SDS011;10869;52.238;10.716;2023-05-07T04:44:57;15.53;;;11.90;;
21416;SDS011;10869;52.238;10.716;2023-05-07T04:47:23;15.40;;;11.30;;
21416;SDS011;10869;52.238;10.716;2023-05-07T04:49:48;16.27;;;11.83;;
21416;SDS011;10869;52.238;10.716;2023-05-07T04:52:14;15.23;;;10.53;;
21416;SDS011;10869;52.238;10.716;2023-05-07T04:54:40;17.13;;;12.50;;
21416;SDS011;10869;52.238;10.716;2023-05-07T04:57:06;15.60;;;12.20;;
21416;SDS011;10869;52.238;10.716;2023-05-07T04:59:32;16.77;;;12.93;;
21416;SDS011;10869;52.238;10.716;2023-05-07T05:01:58;16.47;;;12.77;;
21416;SDS011;10869;52.238;10.716;2023-05-07T05:04:24;16.27;;;13.07;;
21416;SDS011;10869;52.238;10.716;2023-05-07T05:06:49;17.87;;;12.87;;
21416;SDS011;10869;52.238;10.716;2023-05-07T05:09:15;18.93;;;14.40;;
21416;SDS011;10869;52.238;10.716;2023-05-07T05:11:41;17.33;;;14.23;;
21416;SDS011;10869;52.238;10.716;2023-05-07T05:14:07;19.43;;;14.50;;
21416;SDS011;10869;52.238;10.716;2023-05-07T05:16:32;18.60;;;13.83;;
21416;SDS011;10869;52.238;10.716;2023-05-07T05:18:59;16.30;;;13.37;;
21416;SDS011;10869;52.238;10.716;2023-05-07T05:21:26;20.10;;;15.60;;
21416;SDS011;10869;52.238;10.716;2023-05-07T05:23:52;19.13;;;14.93;;
21416;SDS011;10869;52.238;10.716;2023-05-07T05:26:18;22.73;;;17.53;;
21416;SDS011;10869;52.238;10.716;2023-05-07T05:28:43;19.53;;;16.10;;
21416;SDS011;10869;52.238;10.716;2023-05-07T05:31:09;20.93;;;16.67;;
21416;SDS011;10869;52.238;10.716;2023-05-07T05:33:35;18.87;;;15.10;;
21416;SDS011;10869;52.238;10.716;2023-05-07T05:36:01;18.17;;;15.63;;
21416;SDS011;10869;52.238;10.716;2023-05-07T05:38:27;19.20;;;15.10;;
21416;SDS011;10869;52.238;10.716;2023-05-07T05:40:52;20.93;;;15.60;;
21416;SDS011;10869;52.238;10.716;2023-05-07T05:43:18;18.90;;;14.90;;
21416;SDS011;10869;52.238;10.716;2023-05-07T05:45:44;17.60;;;14.90;;
21416;SDS011;10869;52.238;10.716;2023-05-07T05:48:09;21.70;;;15.10;;
21416;SDS011;10869;52.238;10.716;2023-05-07T05:50:35;19.47;;;15.47;;
21416;SDS011;10869;52.238;10.716;2023-05-07T05:53:01;21.90;;;16.30;;
21416;SDS011;10869;52.238;10.716;2023-05-07T05:55:27;21.00;;;15.63;;
21416;SDS011;10869;52.238;10.716;2023-05-07T05:57:53;19.87;;;16.63;;
21416;SDS011;10869;52.238;10.716;2023-05-07T06:00:19;18.47;;;14.83;;
21416;SDS011;10869;52.238;10.716;2023-05-07T06:02:47;18.37;;;14.70;;
21416;SDS011;10869;52.238;10.716;2023-05-07T06:05:13;17.87;;;13.57;;
21416;SDS011;10869;52.238;10.716;2023-05-07T06:07:40;18.20;;;14.37;;
21416;SDS011;10869;52.238;10.716;2023-05-07T06:10:06;17.47;;;13.77;;
21416;SDS011;10869;52.238;10.716;2023-05-07T06:12:32;17.90;;;14.13;;
21416;SDS011;10869;52.238;10.716;2023-05-07T06:14:57;16.63;;;13.27;;
21416;SDS011;10869;52.238;10.716;2023-05-07T06:17:23;18.33;;;12.77;;
21416;SDS011;10869;52.238;10.716;2023-05-07T06:19:49;16.20;;;12.33;;
21416;SDS011;10869;52.238;10.716;2023-05-07T06:22:21;15.63;;;12.90;;
21416;SDS011;10869;52.238;10.716;2023-05-07T06:24:56;15.93;;;12.83;;
21416;SDS011;10869;52.238;10.716;2023-05-07T06:27:21;16.53;;;12.20;;
21416;SDS011;10869;52.238;10.716;2023-05-07T06:29:47;16.40;;;12.17;;
21416;SDS011;10869;52.238;10.716;2023-05-07T06:32:13;13.80;;;10.43;;
21416;SDS011;10869;52.238;10.716;2023-05-07T06:34:39;14.10;;;10.63;;
21416;SDS011;10869;52.238;10.716;2023-05-07T06:37:06;12.80;;;9.87;;
21416;SDS011;10869;52.238;10.716;2023-05-07T06:39:32;17.67;;;10.40;;
21416;SDS011;10869;52.238;10.716;2023-05-07T06:50:26;15.67;;;11.90;;
21416;SDS011;10869;52.238;10.716;2023-05-07T06:52:52;17.27;;;13.80;;
21416;SDS011;10869;52.238;10.716;2023-05-07T06:55:17;18.10;;;12.90;;
21416;SDS011;10869;52.238;10.716;2023-05-07T07:00:53;16.97;;;12.80;;
21416;SDS011;10869;52.238;10.716;2023-05-07T07:03:18;16.70;;;13.27;;
21416;SDS011;10869;52.238;10.716;2023-05-07T07:05:57;15.87;;;12.00;;
21416;SDS011;10869;52.238;10.716;2023-05-07T07:08:27;17.53;;;12.47;;
21416;SDS011;10869;52.238;10.716;2023-05-07T07:10:52;15.77;;;12.43;;
21416;SDS011;10869;52.238;10.716;2023-05-07T07:13:18;14.20;;;10.67;;
21416;SDS011;10869;52.238;10.716;2023-05-07T07:15:44;17.00;;;11.50;;
21416;SDS011;10869;52.238;10.716;2023-05-07T07:18:10;15.70;;;11.20;;
21416;SDS011;10869;52.238;10.716;2023-05-07T07:20:36;14.63;;;10.30;;
21416;SDS011;10869;52.238;10.716;2023-05-07T07:26:23;14.90;;;10.87;;
21416;SDS011;10869;52.238;10.716;2023-05-07T07:28:49;16.97;;;11.07;;
21416;SDS011;10869;52.238;10.716;2023-05-07T07:31:15;15.70;;;10.73;;
21416;SDS011;10869;52.238;10.716;2023-05-07T07:33:40;16.23;;;10.87;;
21416;SDS011;10869;52.238;10.716;2023-05-07T07:36:06;14.30;;;11.13;;
21416;SDS011;10869;52.238;10.716;2023-05-07T07:38:33;14.90;;;10.17;;
21416;SDS011;10869;52.238;10.716;2023-05-07T07:40:59;14.77;;;11.10;;
21416;SDS011;10869;52.238;10.716;2023-05-07T07:43:26;15.00;;;10.03;;
21416;SDS011;10869;52.238;10.716;2023-05-07T07:45:52;14.13;;;10.33;;
21416;SDS011;10869;52.238;10.716;2023-05-07T07:48:18;15.60;;;10.77;;
21416;SDS011;10869;52.238;10.716;2023-05-07T07:50:43;15.50;;;11.87;;
21416;SDS011;10869;52.238;10.716;2023-05-07T07:53:09;15.77;;;12.17;;
21416;SDS011;10869;52.238;10.716;2023-05-07T07:55:39;18.10;;;14.03;;
21416;SDS011;10869;52.238;10.716;2023-05-07T07:58:05;18.53;;;13.97;;
21416;SDS011;10869;52.238;10.716;2023-05-07T08:00:31;15.97;;;13.20;;
21416;SDS011;10869;52.238;10.716;2023-05-07T08:02:56;15.97;;;13.07;;
21416;SDS011;10869;52.238;10.716;2023-05-07T08:05:22;16.53;;;13.37;;
21416;SDS011;10869;52.238;10.716;2023-05-07T08:08:07;17.17;;;13.87;;
21416;SDS011;10869;52.238;10.716;2023-05-07T08:10:33;17.53;;;14.00;;
21416;SDS011;10869;52.238;10.716;2023-05-07T08:12:59;20.53;;;13.07;;
21416;SDS011;10869;52.238;10.716;2023-05-07T08:15:25;16.83;;;13.80;;
21416;SDS011;10869;52.238;10.716;2023-05-07T08:17:51;15.20;;;12.63;;
21416;SDS011;10869;52.238;10.716;2023-05-07T08:27:01;15.83;;;12.13;;
21416;SDS011;10869;52.238;10.716;2023-05-07T08:32:49;14.97;;;11.90;;
21416;SDS011;10869;52.238;10.716;2023-05-07T08:35:14;15.50;;;11.20;;
21416;SDS011;10869;52.238;10.716;2023-05-07T08:37:40;17.67;;;11.77;;
21416;SDS011;10869;52.238;10.716;2023-05-07T08:46:50;21.27;;;14.77;;
21416;SDS011;10869;52.238;10.716;2023-05-07T08:49:19;15.93;;;12.67;;
21416;SDS011;10869;52.238;10.716;2023-05-07T08:51:45;14.77;;;10.70;;
21416;SDS011;10869;52.238;10.716;2023-05-07T08:54:15;16.30;;;10.87;;
21416;SDS011;10869;52.238;10.716;2023-05-07T08:56:42;14.20;;;10.77;;
21416;SDS011;10869;52.238;10.716;2023-05-07T08:59:09;14.03;;;9.73;;
21416;SDS011;10869;52.238;10.716;2023-05-07T09:01:34;13.43;;;10.50;;
21416;SDS011;10869;52.238;10.716;2023-05-07T09:04:01;13.63;;;9.37;;
21416;SDS011;10869;52.238;10.716;2023-05-07T09:06:26;11.87;;;9.17;;
21416;SDS011;10869;52.238;10.716;2023-05-07T09:08:54;12.97;;;9.47;;
21416;SDS011;10869;52.238;10.716;2023-05-07T09:11:22;12.07;;;7.63;;
21416;SDS011;10869;52.238;10.716;2023-05-07T09:13:52;10.73;;;7.90;;
21416;SDS011;10869;52.238;10.716;2023-05-07T09:16:20;10.27;;;7.33;;
21416;SDS011;10869;52.238;10.716;2023-05-07T09:18:50;11.13;;;7.43;;
21416;SDS011;10869;52.238;10.716;2023-05-07T09:21:20;10.90;;;7.20;;
21416;SDS011;10869;52.238;10.716;2023-05-07T09:23:51;9.30;;;6.90;;
21416;SDS011;10869;52.238;10.716;2023-05-07T09:26:17;11.17;;;7.40;;
21416;SDS011;10869;52.238;10.716;2023-05-07T09:32:05;10.03;;;7.07;;
21416;SDS011;10869;52.238;10.716;2023-05-07T09:34:33;10.07;;;6.97;;
21416;SDS011;10869;52.238;10.716;2023-05-07T09:37:03;8.83;;;6.60;;
21416;SDS011;10869;52.238;10.716;2023-05-07T09:42:25;9.60;;;6.80;;
21416;SDS011;10869;52.238;10.716;2023-05-07T09:44:54;10.50;;;5.97;;
21416;SDS011;10869;52.238;10.716;2023-05-07T09:47:20;9.67;;;6.80;;
21416;SDS011;10869;52.238;10.716;2023-05-07T09:49:50;10.07;;;6.80;;
21416;SDS011;10869;52.238;10.716;2023-05-07T09:55:45;11.30;;;8.27;;
21416;SDS011;10869;52.238;10.716;2023-05-07T09:58:12;12.37;;;8.60;;
21416;SDS011;10869;52.238;10.716;2023-05-07T10:00:39;12.17;;;9.07;;
21416;SDS011;10869;52.238;10.716;2023-05-07T10:03:07;15.57;;;8.97;;
21416;SDS011;10869;52.238;10.716;2023-05-07T10:05:36;11.37;;;8.47;;
21416;SDS011;10869;52.238;10.716;2023-05-07T10:08:03;13.53;;;8.13;;
21416;SDS011;10869;52.238;10.716;2023-05-07T10:10:32;10.97;;;8.47;;
21416;SDS011;10869;52.238;10.716;2023-05-07T10:27:07;9.43;;;6.70;;
21416;SDS011;10869;52.238;10.716;2023-05-07T10:29:58;9.20;;;5.97;;
21416;SDS011;10869;52.238;10.716;2023-05-07T10:32:45;8.33;;;5.07;;
21416;SDS011;10869;52.238;10.716;2023-05-07T10:35:42;10.10;;;5.70;;
21416;SDS011;10869;52.238;10.716;2023-05-07T10:41:22;9.67;;;4.83;;
21416;SDS011;10869;52.238;10.716;2023-05-07T10:46:43;8.17;;;4.43;;
21416;SDS011;10869;52.238;10.716;2023-05-07T10:52:35;7.63;;;4.80;;
21416;SDS011;10869;52.238;10.716;2023-05-07T11:03:11;6.83;;;4.60;;
21416;SDS011;10869;52.238;10.716;2023-05-07T11:05:38;9.03;;;5.20;;
21416;SDS011;10869;52.238;10.716;2023-05-07T11:08:07;9.10;;;5.67;;
21416;SDS011;10869;52.238;10.716;2023-05-07T11:10:47;8.43;;;5.17;;
21416;SDS011;10869;52.238;10.716;2023-05-07T11:13:16;8.47;;;5.13;;
21416;SDS011;10869;52.238;10.716;2023-05-07T11:15:45;8.27;;;5.50;;
21416;SDS011;10869;52.238;10.716;2023-05-07T11:18:53;13.70;;;6.27;;
21416;SDS011;10869;52.238;10.716;2023-05-07T11:21:43;9.17;;;6.53;;
21416;SDS011;10869;52.238;10.716;2023-05-07T11:28:03;10.67;;;6.57;;
21416;SDS011;10869;52.238;10.716;2023-05-07T11:34:44;11.73;;;7.73;;
21416;SDS011;10869;52.238;10.716;2023-05-07T11:41:19;11.93;;;7.70;;
21416;SDS011;10869;52.238;10.716;2023-05-07T11:43:55;10.97;;;6.73;;
21416;SDS011;10869;52.238;10.716;2023-05-07T11:46:42;9.23;;;6.57;;
21416;SDS011;10869;52.238;10.716;2023-05-07T11:49:11;10.73;;;7.50;;
21416;SDS011;10869;52.238;10.716;2023-05-07T12:38:35;10.30;;;6.67;;
21416;SDS011;10869;52.238;10.716;2023-05-07T14:02:09;8.80;;;6.40;;
21416;SDS011;10869;52.238;10.716;2023-05-07T14:07:19;10.30;;;6.97;;
21416;SDS011;10869;52.238;10.716;2023-05-07T14:15:56;10.73;;;7.10;;
21416;SDS011;10869;52.238;10.716;2023-05-07T14:18:25;10.80;;;7.30;;
21416;SDS011;10869;52.238;10.716;2023-05-07T14:20:51;9.40;;;6.53;;
21416;SDS011;10869;52.238;10.716;2023-05-07T14:23:24;9.67;;;6.67;;
21416;SDS011;10869;52.238;10.716;2023-05-07T14:25:54;10.23;;;7.10;;
21416;SDS011;10869;52.238;10.716;2023-05-07T14:28:22;9.53;;;6.63;;
21416;SDS011;10869;52.238;10.716;2023-05-07T14:30:48;10.90;;;6.97;;
21416;SDS011;10869;52.238;10.716;2023-05-07T14:33:14;11.10;;;7.07;;
21416;SDS011;10869;52.238;10.716;2023-05-07T14:35:41;13.87;;;8.13;;
21416;SDS011;10869;52.238;10.716;2023-05-07T14:38:22;12.23;;;7.50;;
21416;SDS011;10869;52.238;10.716;2023-05-07T14:40:48;8.63;;;6.63;;
21416;SDS011;10869;52.238;10.716;2023-05-07T14:43:14;11.43;;;7.00;;
21416;SDS011;10869;52.238;10.716;2023-05-07T14:45:40;10.33;;;6.93;;
21416;SDS011;10869;52.238;10.716;2023-05-07T14:48:09;8.20;;;5.70;;
21416;SDS011;10869;52.238;10.716;2023-05-07T14:50:40;9.57;;;6.60;;
21416;SDS011;10869;52.238;10.716;2023-05-07T14:56:32;8.70;;;5.40;;
21416;SDS011;10869;52.238;10.716;2023-05-07T14:59:00;12.60;;;5.80;;
21416;SDS011;10869;52.238;10.716;2023-05-07T15:01:26;10.37;;;6.07;;
21416;SDS011;10869;52.238;10.716;2023-05-07T15:03:59;8.70;;;5.70;;
21416;SDS011;10869;52.238;10.716;2023-05-07T15:06:25;8.20;;;5.97;;
21416;SDS011;10869;52.238;10.716;2023-05-07T15:08:52;8.30;;;5.53;;
21416;SDS011;10869;52.238;10.716;2023-05-07T15:11:17;8.20;;;5.57;;
21416;SDS011;10869;52.238;10.716;2023-05-07T15:13:43;9.97;;;5.53;;
21416;SDS011;10869;52.238;10.716;2023-05-07T15:16:09;11.07;;;6.00;;
21416;SDS011;10869;52.238;10.716;2023-05-07T15:18:35;9.17;;;6.10;;
21416;SDS011;10869;52.238;10.716;2023-05-07T15:21:03;8.50;;;6.00;;
21416;SDS011;10869;52.238;10.716;2023-05-07T15:23:36;10.40;;;7.40;;
21416;SDS011;10869;52.238;10.716;2023-05-07T15:26:07;8.67;;;6.33;;
21416;SDS011;10869;52.238;10.716;2023-05-07T15:28:36;10.80;;;7.13;;
21416;SDS011;10869;52.238;10.716;2023-05-07T15:31:03;12.13;;;6.43;;
21416;SDS011;10869;52.238;10.716;2023-05-07T15:33:32;10.40;;;7.23;;
21416;SDS011;10869;52.238;10.716;2023-05-07T15:35:59;9.17;;;7.17;;
21416;SDS011;10869;52.238;10.716;2023-05-07T15:38:31;10.03;;;6.70;;
21416;SDS011;10869;52.238;10.716;2023-05-07T15:43:33;9.93;;;7.00;;
21416;SDS011;10869;52.238;10.716;2023-05-07T15:46:11;10.80;;;7.23;;
21416;SDS011;10869;52.238;10.716;2023-05-07T15:48:42;9.83;;;6.67;;
21416;SDS011;10869;52.238;10.716;2023-05-07T15:51:09;9.57;;;6.80;;
21416;SDS011;10869;52.238;10.716;2023-05-07T15:53:35;10.90;;;8.50;;
21416;SDS011;10869;52.238;10.716;2023-05-07T15:56:19;9.27;;;7.10;;
21416;SDS011;10869;52.238;10.716;2023-05-07T15:58:51;10.40;;;7.03;;
21416;SDS011;10869;52.238;10.716;2023-05-07T16:05:19;9.30;;;5.87;;
21416;SDS011;10869;52.238;10.716;2023-05-07T16:11:09;9.87;;;6.70;;
21416;SDS011;10869;52.238;10.716;2023-05-07T16:17:00;10.13;;;6.27;;
21416;SDS011;10869;52.238;10.716;2023-05-07T16:19:36;10.90;;;6.57;;
21416;SDS011;10869;52.238;10.716;2023-05-07T16:22:02;11.80;;;6.60;;
21416;SDS011;10869;52.238;10.716;2023-05-07T16:24:29;10.00;;;6.87;;
21416;SDS011;10869;52.238;10.716;2023-05-07T16:27:00;11.13;;;6.77;;
21416;SDS011;10869;52.238;10.716;2023-05-07T16:32:50;9.37;;;6.53;;
21416;SDS011;10869;52.238;10.716;2023-05-07T16:38:40;10.80;;;6.87;;
21416;SDS011;10869;52.238;10.716;2023-05-07T16:41:06;11.50;;;6.50;;
21416;SDS011;10869;52.238;10.716;2023-05-07T16:43:32;10.40;;;6.27;;
21416;SDS011;10869;52.238;10.716;2023-05-07T16:46:00;9.50;;;6.73;;
21416;SDS011;10869;52.238;10.716;2023-05-07T16:51:25;8.90;;;5.80;;
21416;SDS011;10869;52.238;10.716;2023-05-07T16:53:54;8.03;;;5.87;;
21416;SDS011;10869;52.238;10.716;2023-05-07T16:56:21;9.20;;;5.70;;
21416;SDS011;10869;52.238;10.716;2023-05-07T16:58:54;10.30;;;6.20;;
21416;SDS011;10869;52.238;10.716;2023-05-07T17:01:20;9.43;;;6.40;;
21416;SDS011;10869;52.238;10.716;2023-05-07T17:03:46;9.17;;;5.93;;
21416;SDS011;10869;52.238;10.716;2023-05-07T17:06:15;8.63;;;5.93;;
21416;SDS011;10869;52.238;10.716;2023-05-07T17:12:07;8.33;;;5.67;;
21416;SDS011;10869;52.238;10.716;2023-05-07T17:18:04;8.57;;;4.67;;
21416;SDS011;10869;52.238;10.716;2023-05-07T17:24:04;7.50;;;4.97;;
21416;SDS011;10869;52.238;10.716;2023-05-07T17:26:30;8.67;;;4.30;;
21416;SDS011;10869;52.238;10.716;2023-05-07T17:28:59;8.30;;;4.20;;
21416;SDS011;10869;52.238;10.716;2023-05-07T17:31:24;8.77;;;4.83;;
21416;SDS011;10869;52.238;10.716;2023-05-07T17:33:50;6.33;;;4.20;;
21416;SDS011;10869;52.238;10.716;2023-05-07T17:36:21;8.33;;;4.37;;
21416;SDS011;10869;52.238;10.716;2023-05-07T17:38:47;6.70;;;4.03;;
21416;SDS011;10869;52.238;10.716;2023-05-07T17:44:36;6.37;;;3.90;;
21416;SDS011;10869;52.238;10.716;2023-05-07T17:47:01;6.73;;;4.20;;
21416;SDS011;10869;52.238;10.716;2023-05-07T17:49:27;8.90;;;4.20;;
21416;SDS011;10869;52.238;10.716;2023-05-07T17:51:53;6.60;;;3.83;;
21416;SDS011;10869;52.238;10.716;2023-05-07T17:54:19;7.43;;;4.10;;
21416;SDS011;10869;52.238;10.716;2023-05-07T17:56:48;6.27;;;4.00;;
21416;SDS011;10869;52.238;10.716;2023-05-07T17:59:14;6.30;;;3.83;;
21416;SDS011;10869;52.238;10.716;2023-05-07T18:01:42;7.30;;;4.17;;
21416;SDS011;10869;52.238;10.716;2023-05-07T18:07:30;7.40;;;4.13;;
21416;SDS011;10869;52.238;10.716;2023-05-07T18:09:56;6.57;;;3.77;;
21416;SDS011;10869;52.238;10.716;2023-05-07T18:15:45;7.03;;;4.40;;
21416;SDS011;10869;52.238;10.716;2023-05-07T18:18:12;5.77;;;3.83;;
21416;SDS011;10869;52.238;10.716;2023-05-07T18:20:39;7.70;;;4.90;;
21416;SDS011;10869;52.238;10.716;2023-05-07T18:23:08;7.27;;;4.67;;
21416;SDS011;10869;52.238;10.716;2023-05-07T18:25:37;6.67;;;4.33;;
21416;SDS011;10869;52.238;10.716;2023-05-07T18:28:28;7.57;;;4.27;;
21416;SDS011;10869;52.238;10.716;2023-05-07T18:30:54;6.97;;;4.43;;
21416;SDS011;10869;52.238;10.716;2023-05-07T18:33:21;6.77;;;4.33;;
21416;SDS011;10869;52.238;10.716;2023-05-07T18:35:47;6.20;;;3.80;;
21416;SDS011;10869;52.238;10.716;2023-05-07T18:38:12;8.17;;;4.97;;
21416;SDS011;10869;52.238;10.716;2023-05-07T19:47:58;10.47;;;7.13;;
21416;SDS011;10869;52.238;10.716;2023-05-07T19:53:46;11.83;;;8.30;;
21416;SDS011;10869;52.238;10.716;2023-05-07T19:56:12;10.07;;;7.10;;
21416;SDS011;10869;52.238;10.716;2023-05-07T19:58:38;10.63;;;7.60;;
21416;SDS011;10869;52.238;10.716;2023-05-07T20:01:05;10.70;;;7.27;;
21416;SDS011;10869;52.238;10.716;2023-05-07T20:03:31;11.27;;;7.07;;
21416;SDS011;10869;52.238;10.716;2023-05-07T20:09:20;10.30;;;7.27;;
21416;SDS011;10869;52.238;10.716;2023-05-07T20:11:45;9.97;;;7.40;;
21416;SDS011;10869;52.238;10.716;2023-05-07T20:17:33;9.93;;;7.63;;
21416;SDS011;10869;52.238;10.716;2023-05-07T20:19:59;9.50;;;6.47;;
21416;SDS011;10869;52.238;10.716;2023-05-07T20:25:47;12.73;;;7.10;;
21416;SDS011;10869;52.238;10.716;2023-05-07T20:28:14;12.60;;;7.70;;
21416;SDS011;10869;52.238;10.716;2023-05-07T20:34:05;11.13;;;7.57;;
21416;SDS011;10869;52.238;10.716;2023-05-07T20:36:32;11.43;;;7.53;;
21416;SDS011;10869;52.238;10.716;2023-05-07T20:38:57;12.90;;;8.20;;
21416;SDS011;10869;52.238;10.716;2023-05-07T20:41:23;10.17;;;7.40;;
21416;SDS011;10869;52.238;10.716;2023-05-07T20:43:49;12.77;;;7.03;;
21416;SDS011;10869;52.238;10.716;2023-05-07T20:46:15;12.77;;;7.70;;
21416;SDS011;10869;52.238;10.716;2023-05-07T20:48:42;10.20;;;6.93;;
21416;SDS011;10869;52.238;10.716;2023-05-07T20:51:08;9.23;;;6.50;;
21416;SDS011;10869;52.238;10.716;2023-05-07T20:53:37;11.37;;;7.10;;
21416;SDS011;10869;52.238;10.716;2023-05-07T20:56:06;11.07;;;7.23;;
21416;SDS011;10869;52.238;10.716;2023-05-07T20:58:34;10.10;;;7.20;;
21416;SDS011;10869;52.238;10.716;2023-05-07T21:01:03;11.13;;;7.43;;
21416;SDS011;10869;52.238;10.716;2023-05-07T21:03:30;10.27;;;7.23;;
21416;SDS011;10869;52.238;10.716;2023-05-07T21:05:56;10.13;;;7.00;;
21416;SDS011;10869;52.238;10.716;2023-05-07T21:08:24;11.10;;;7.67;;
21416;SDS011;10869;52.238;10.716;2023-05-07T21:10:50;10.87;;;6.37;;
21416;SDS011;10869;52.238;10.716;2023-05-07T21:13:17;10.07;;;7.83;;
21416;SDS011;10869;52.238;10.716;2023-05-07T21:15:43;9.80;;;7.20;;
21416;SDS011;10869;52.238;10.716;2023-05-07T21:18:09;9.97;;;6.80;;
21416;SDS011;10869;52.238;10.716;2023-05-07T21:20:35;10.10;;;6.93;;
21416;SDS011;10869;52.238;10.716;2023-05-07T21:23:02;9.80;;;7.00;;
21416;SDS011;10869;52.238;10.716;2023-05-07T21:25:28;10.17;;;7.37;;
21416;SDS011;10869;52.238;10.716;2023-05-07T21:27:54;9.83;;;7.13;;
21416;SDS011;10869;52.238;10.716;2023-05-07T21:30:20;10.17;;;6.93;;
21416;SDS011;10869;52.238;10.716;2023-05-07T21:32:46;10.33;;;6.50;;
21416;SDS011;10869;52.238;10.716;2023-05-07T21:35:12;13.23;;;7.83;;
21416;SDS011;10869;52.238;10.716;2023-05-07T21:37:37;10.87;;;7.70;;
21416;SDS011;10869;52.238;10.716;2023-05-07T21:40:03;10.80;;;7.77;;
21416;SDS011;10869;52.238;10.716;2023-05-07T21:42:30;10.20;;;7.37;;
21416;SDS011;10869;52.238;10.716;2023-05-07T21:44:55;13.47;;;7.67;;
21416;SDS011;10869;52.238;10.716;2023-05-07T21:47:21;12.87;;;7.90;;
21416;SDS011;10869;52.238;10.716;2023-05-07T21:49:47;13.10;;;6.73;;
21416;SDS011;10869;52.238;10.716;2023-05-07T21:52:13;10.37;;;7.43;;
21416;SDS011;10869;52.238;10.716;2023-05-07T21:54:40;14.83;;;8.30;;
21416;SDS011;10869;52.238;10.716;2023-05-07T21:57:06;11.80;;;8.90;;
21416;SDS011;10869;52.238;10.716;2023-05-07T21:59:32;14.60;;;8.73;;
21416;SDS011;10869;52.238;10.716;2023-05-07T22:01:58;12.53;;;8.30;;
21416;SDS011;10869;52.238;10.716;2023-05-07T22:04:24;12.00;;;8.57;;
21416;SDS011;10869;52.238;10.716;2023-05-07T22:10:12;11.53;;;8.90;;
21416;SDS011;10869;52.238;10.716;2023-05-07T22:12:38;11.53;;;8.73;;
21416;SDS011;10869;52.238;10.716;2023-05-07T22:15:04;11.53;;;9.43;;
21416;SDS011;10869;52.238;10.716;2023-05-07T22:17:30;11.03;;;8.53;;
21416;SDS011;10869;52.238;10.716;2023-05-07T22:19:56;13.27;;;8.93;;
21416;SDS011;10869;52.238;10.716;2023-05-07T22:22:22;13.97;;;9.30;;
21416;SDS011;10869;52.238;10.716;2023-05-07T22:24:47;12.17;;;9.33;;
21416;SDS011;10869;52.238;10.716;2023-05-07T22:27:13;10.47;;;8.17;;
21416;SDS011;10869;52.238;10.716;2023-05-07T22:29:39;10.87;;;8.00;;
21416;SDS011;10869;52.238;10.716;2023-05-07T22:32:05;12.80;;;9.97;;
21416;SDS011;10869;52.238;10.716;2023-05-07T22:34:31;11.33;;;8.50;;
21416;SDS011;10869;52.238;10.716;2023-05-07T22:36:56;11.10;;;8.77;;
21416;SDS011;10869;52.238;10.716;2023-05-07T22:39:22;13.10;;;9.17;;
21416;SDS011;10869;52.238;10.716;2023-05-07T22:41:48;14.33;;;9.47;;
21416;SDS011;10869;52.238;10.716;2023-05-07T22:44:14;12.50;;;9.17;;
21416;SDS011;10869;52.238;10.716;2023-05-07T22:46:40;13.43;;;9.03;;
21416;SDS011;10869;52.238;10.716;2023-05-07T22:49:06;14.90;;;9.30;;
21416;SDS011;10869;52.238;10.716;2023-05-07T22:51:31;14.00;;;9.33;;
21416;SDS011;10869;52.238;10.716;2023-05-07T22:53:57;11.10;;;8.77;;
21416;SDS011;10869;52.238;10.716;2023-05-07T22:56:23;12.33;;;8.30;;
21416;SDS011;10869;52.238;10.716;2023-05-07T22:58:49;15.30;;;9.07;;
